sensor_id;sensor_type;location;lat;lon;timestamp;pressure;altitude;pressure_sealevel;temperature;humidity
78354;BME280;67629;46.040;18.232;2023-11-21T00:00:14;99237.00;;;8.43;100.00
78354;BME280;67629;46.040;18.232;2023-11-21T00:00:45;99236.88;;;8.38;100.00
78354;BME280;67629;46.040;18.232;2023-11-21T00:01:16;99238.78;;;8.38;100.00
78354;BME280;67629;46.040;18.232;2023-11-21T00:01:47;99242.31;;;8.38;100.00
78354;BME280;67629;46.040;18.232;2023-11-21T00:02:18;99239.59;;;8.38;100.00
78354;BME280;67629;46.040;18.232;2023-11-21T00:02:48;99239.59;;;8.38;100.00
78354;BME280;67629;46.040;18.232;2023-11-21T00:03:19;99235.81;;;8.39;100.00
78354;BME280;67629;46.040;18.232;2023-11-21T00:03:50;99241.72;;;8.36;100.00
78354;BME280;67629;46.040;18.232;2023-11-21T00:04:20;99245.28;;;8.37;100.00
78354;BME280;67629;46.040;18.232;2023-11-21T00:04:51;99238.56;;;8.28;100.00
78354;BME280;67629;46.040;18.232;2023-11-21T00:05:22;99234.13;;;8.27;100.00
78354;BME280;67629;46.040;18.232;2023-11-21T00:05:53;99233.69;;;8.30;100.00
78354;BME280;67629;46.040;18.232;2023-11-21T00:06:24;99233.56;;;8.25;100.00
78354;BME280;67629;46.040;18.232;2023-11-21T00:06:54;99236.66;;;8.28;100.00
78354;BME280;67629;46.040;18.232;2023-11-21T00:07:25;99236.53;;;8.35;100.00
78354;BME280;67629;46.040;18.232;2023-11-21T00:07:55;99235.09;;;8.32;100.00
78354;BME280;67629;46.040;18.232;2023-11-21T00:08:26;99239.38;;;8.28;100.00
78354;BME280;67629;46.040;18.232;2023-11-21T00:08:57;99231.88;;;8.24;100.00
78354;BME280;67629;46.040;18.232;2023-11-21T00:10:40;99228.94;;;8.25;100.00
78354;BME280;67629;46.040;18.232;2023-11-21T00:11:11;99227.88;;;8.26;100.00
78354;BME280;67629;46.040;18.232;2023-11-21T00:11:42;99225.97;;;8.27;100.00
78354;BME280;67629;46.040;18.232;2023-11-21T00:12:14;99228.38;;;8.23;100.00
78354;BME280;67629;46.040;18.232;2023-11-21T00:12:45;99230.47;;;8.21;100.00
78354;BME280;67629;46.040;18.232;2023-11-21T00:13:18;99230.47;;;8.21;100.00
78354;BME280;67629;46.040;18.232;2023-11-21T00:13:49;99228.38;;;8.23;100.00
78354;BME280;67629;46.040;18.232;2023-11-21T00:14:19;99223.50;;;8.25;100.00
78354;BME280;67629;46.040;18.232;2023-11-21T00:14:50;99230.38;;;8.28;100.00
78354;BME280;67629;46.040;18.232;2023-11-21T00:15:21;99230.16;;;8.29;100.00
78354;BME280;67629;46.040;18.232;2023-11-21T00:15:52;99231.56;;;8.32;100.00
78354;BME280;67629;46.040;18.232;2023-11-21T00:16:23;99236.75;;;8.33;100.00
78354;BME280;67629;46.040;18.232;2023-11-21T00:16:55;99240.31;;;8.34;100.00
78354;BME280;67629;46.040;18.232;2023-11-21T00:17:26;99239.00;;;8.36;100.00
78354;BME280;67629;46.040;18.232;2023-11-21T00:17:56;99237.13;;;8.37;100.00
78354;BME280;67629;46.040;18.232;2023-11-21T00:18:27;99245.50;;;8.35;100.00
78354;BME280;67629;46.040;18.232;2023-11-21T00:18:58;99241.72;;;8.36;100.00
78354;BME280;67629;46.040;18.232;2023-11-21T00:19:28;99242.56;;;8.37;100.00
78354;BME280;67629;46.040;18.232;2023-11-21T00:19:59;99242.31;;;8.38;100.00
78354;BME280;67629;46.040;18.232;2023-11-21T00:20:29;99240.91;;;8.36;100.00
78354;BME280;67629;46.040;18.232;2023-11-21T00:21:00;99241.63;;;8.31;100.00
78354;BME280;67629;46.040;18.232;2023-11-21T00:21:30;99239.84;;;8.37;100.00
78354;BME280;67629;46.040;18.232;2023-11-21T00:22:01;99241.72;;;8.36;100.00
78354;BME280;67629;46.040;18.232;2023-11-21T00:22:33;99240.06;;;8.35;100.00
78354;BME280;67629;46.040;18.232;2023-11-21T00:23:04;99242.78;;;8.35;100.00
78354;BME280;67629;46.040;18.232;2023-11-21T00:23:35;99243.97;;;8.39;100.00
78354;BME280;67629;46.040;18.232;2023-11-21T00:24:05;99242.09;;;8.40;100.00
78354;BME280;67629;46.040;18.232;2023-11-21T00:24:36;99237.69;;;8.39;100.00
78354;BME280;67629;46.040;18.232;2023-11-21T00:25:07;99236.88;;;8.38;100.00
78354;BME280;67629;46.040;18.232;2023-11-21T00:25:39;99237.13;;;8.37;100.00
78354;BME280;67629;46.040;18.232;2023-11-21T00:26:10;99242.78;;;8.35;100.00
78354;BME280;67629;46.040;18.232;2023-11-21T00:26:41;99237.97;;;8.37;100.00
78354;BME280;67629;46.040;18.232;2023-11-21T00:27:11;99243.97;;;8.39;100.00
78354;BME280;67629;46.040;18.232;2023-11-21T00:27:42;99242.91;;;8.40;100.00
78354;BME280;67629;46.040;18.232;2023-11-21T00:28:13;99232.25;;;8.39;100.00
78354;BME280;67629;46.040;18.232;2023-11-21T00:28:43;99233.44;;;8.43;100.00
78354;BME280;67629;46.040;18.232;2023-11-21T00:29:14;99231.78;;;8.42;100.00
78354;BME280;67629;46.040;18.232;2023-11-21T00:29:47;99237.00;;;8.43;100.00
78354;BME280;67629;46.040;18.232;2023-11-21T00:30:18;99232.63;;;8.42;100.00
78354;BME280;67629;46.040;18.232;2023-11-21T00:30:50;99230.25;;;8.46;100.00
78354;BME280;67629;46.040;18.232;2023-11-21T00:31:21;99236.75;;;8.45;100.00
78354;BME280;67629;46.040;18.232;2023-11-21T00:31:51;99232.13;;;8.45;100.00
78354;BME280;67629;46.040;18.232;2023-11-21T00:32:22;99227.75;;;8.44;100.00
78354;BME280;67629;46.040;18.232;2023-11-21T00:32:53;99224.31;;;8.49;100.00
78354;BME280;67629;46.040;18.232;2023-11-21T00:33:23;99235.69;;;8.46;100.00
78354;BME280;67629;46.040;18.232;2023-11-21T00:33:55;99227.75;;;8.44;100.00
78354;BME280;67629;46.040;18.232;2023-11-21T00:34:26;99232.72;;;8.47;100.00
78354;BME280;67629;46.040;18.232;2023-11-21T00:34:56;99221.00;;;8.47;100.00
78354;BME280;67629;46.040;18.232;2023-11-21T00:40:50;99228.81;;;8.55;100.00
78354;BME280;67629;46.040;18.232;2023-11-21T00:41:21;99233.44;;;8.54;100.00
78354;BME280;67629;46.040;18.232;2023-11-21T00:41:52;99227.97;;;8.54;100.00
78354;BME280;67629;46.040;18.232;2023-11-21T00:42:23;99239.44;;;8.56;100.00
78354;BME280;67629;46.040;18.232;2023-11-21T00:42:54;99235.66;;;8.57;100.00
78354;BME280;67629;46.040;18.232;2023-11-21T00:43:26;99231.84;;;8.58;100.00
78354;BME280;67629;46.040;18.232;2023-11-21T00:43:57;99229.13;;;8.58;100.00
78354;BME280;67629;46.040;18.232;2023-11-21T00:44:27;99233.75;;;8.58;100.00
78354;BME280;67629;46.040;18.232;2023-11-21T00:44:58;99235.06;;;8.55;100.00
78354;BME280;67629;46.040;18.232;2023-11-21T00:45:29;99223.38;;;8.55;100.00
78354;BME280;67629;46.040;18.232;2023-11-21T00:45:59;99225.47;;;8.53;100.00
78354;BME280;67629;46.040;18.232;2023-11-21T00:46:30;99223.25;;;8.50;100.00
78354;BME280;67629;46.040;18.232;2023-11-21T00:47:01;99223.50;;;8.48;100.00
78354;BME280;67629;46.040;18.232;2023-11-21T00:47:33;99235.78;;;8.51;100.00
78354;BME280;67629;46.040;18.232;2023-11-21T00:48:04;99228.69;;;8.50;100.00
78354;BME280;67629;46.040;18.232;2023-11-21T00:48:35;99227.63;;;8.51;100.00
78354;BME280;67629;46.040;18.232;2023-11-21T00:49:05;99230.09;;;8.52;100.00
78354;BME280;67629;46.040;18.232;2023-11-21T00:49:36;99229.50;;;8.50;100.00
78354;BME280;67629;46.040;18.232;2023-11-21T00:50:07;99224.91;;;8.51;100.00
78354;BME280;67629;46.040;18.232;2023-11-21T00:51:08;99224.31;;;8.49;100.00
78354;BME280;67629;46.040;18.232;2023-11-21T00:51:39;99223.50;;;8.48;100.00
78354;BME280;67629;46.040;18.232;2023-11-21T00:52:10;99225.13;;;8.49;100.00
78354;BME280;67629;46.040;18.232;2023-11-21T00:52:40;99224.31;;;8.49;100.00
78354;BME280;67629;46.040;18.232;2023-11-21T00:53:11;99220.19;;;8.46;100.00
78354;BME280;67629;46.040;18.232;2023-11-21T00:53:41;99215.56;;;8.47;100.00
78354;BME280;67629;46.040;18.232;2023-11-21T00:54:12;99219.38;;;8.46;100.00
78354;BME280;67629;46.040;18.232;2023-11-21T00:54:43;99220.41;;;8.45;100.00
78354;BME280;67629;46.040;18.232;2023-11-21T00:55:13;99215.56;;;8.47;100.00
78354;BME280;67629;46.040;18.232;2023-11-21T00:55:44;99216.16;;;8.49;100.00
78354;BME280;67629;46.040;18.232;2023-11-21T00:56:16;99208.78;;;8.49;100.00
78354;BME280;67629;46.040;18.232;2023-11-21T00:56:46;99211.53;;;8.49;100.00
78354;BME280;67629;46.040;18.232;2023-11-21T00:57:20;99218.63;;;8.50;100.00
78354;BME280;67629;46.040;18.232;2023-11-21T00:57:50;99214.00;;;8.51;100.00
78354;BME280;67629;46.040;18.232;2023-11-21T00:58:21;99216.16;;;8.49;100.00
78354;BME280;67629;46.040;18.232;2023-11-21T00:58:51;99215.31;;;8.48;100.00
78354;BME280;67629;46.040;18.232;2023-11-21T00:59:23;99215.06;;;8.50;100.00
78354;BME280;67629;46.040;18.232;2023-11-21T00:59:53;99206.69;;;8.51;100.00
78354;BME280;67629;46.040;18.232;2023-11-21T01:05:28;99206.69;;;8.51;100.00
78354;BME280;67629;46.040;18.232;2023-11-21T01:05:58;99205.28;;;8.49;100.00
78354;BME280;67629;46.040;18.232;2023-11-21T01:06:29;99212.13;;;8.51;100.00
78354;BME280;67629;46.040;18.232;2023-11-21T01:07:00;99214.38;;;8.54;99.77
78354;BME280;67629;46.040;18.232;2023-11-21T01:07:30;99215.78;;;8.57;99.79
78354;BME280;67629;46.040;18.232;2023-11-21T01:08:01;99208.44;;;8.57;99.52
78354;BME280;67629;46.040;18.232;2023-11-21T01:08:32;99205.94;;;8.56;99.86
78354;BME280;67629;46.040;18.232;2023-11-21T01:09:02;99208.44;;;8.57;99.70
78354;BME280;67629;46.040;18.232;2023-11-21T01:09:38;99209.50;;;8.56;99.76
78354;BME280;67629;46.040;18.232;2023-11-21T01:10:09;99207.13;;;8.60;99.95
78354;BME280;67629;46.040;18.232;2023-11-21T01:10:40;99210.56;;;8.55;99.96
78354;BME280;67629;46.040;18.232;2023-11-21T01:11:11;99206.44;;;8.53;100.00
78354;BME280;67629;46.040;18.232;2023-11-21T01:11:45;99202.88;;;8.52;100.00
78354;BME280;67629;46.040;18.232;2023-11-21T01:12:16;99204.63;;;8.58;99.81
78354;BME280;67629;46.040;18.232;2023-11-21T01:12:47;99203.81;;;8.58;99.61
78354;BME280;67629;46.040;18.232;2023-11-21T01:13:19;99200.03;;;8.59;99.59
78354;BME280;67629;46.040;18.232;2023-11-21T01:13:49;99202.16;;;8.57;99.89
78354;BME280;67629;46.040;18.232;2023-11-21T01:14:20;99199.44;;;8.57;99.97
78354;BME280;67629;46.040;18.232;2023-11-21T01:14:51;99204.06;;;8.56;99.93
78354;BME280;67629;46.040;18.232;2023-11-21T01:15:52;99199.44;;;8.57;99.83
78354;BME280;67629;46.040;18.232;2023-11-21T01:16:23;99196.47;;;8.58;99.87
78354;BME280;67629;46.040;18.232;2023-11-21T01:16:55;99199.19;;;8.58;99.65
78354;BME280;67629;46.040;18.232;2023-11-21T01:17:26;99203.31;;;8.61;99.52
78354;BME280;67629;46.040;18.232;2023-11-21T01:17:57;99203.31;;;8.61;99.09
78354;BME280;67629;46.040;18.232;2023-11-21T01:18:28;99197.66;;;8.63;99.66
78354;BME280;67629;46.040;18.232;2023-11-21T01:18:59;99202.25;;;8.62;99.13
78354;BME280;67629;46.040;18.232;2023-11-21T01:19:30;99201.78;;;8.65;99.14
78354;BME280;67629;46.040;18.232;2023-11-21T01:20:02;99192.78;;;8.65;99.39
78354;BME280;67629;46.040;18.232;2023-11-21T01:20:33;99197.16;;;8.66;98.88
78354;BME280;67629;46.040;18.232;2023-11-21T01:21:04;99194.19;;;8.67;98.96
78354;BME280;67629;46.040;18.232;2023-11-21T01:21:35;99198.00;;;8.66;99.28
78354;BME280;67629;46.040;18.232;2023-11-21T01:22:05;99189.84;;;8.66;99.58
78354;BME280;67629;46.040;18.232;2023-11-21T01:22:36;99191.72;;;8.66;99.36
78354;BME280;67629;46.040;18.232;2023-11-21T01:23:07;99190.91;;;8.65;99.36
78354;BME280;67629;46.040;18.232;2023-11-21T01:23:37;99190.31;;;8.63;98.98
78354;BME280;67629;46.040;18.232;2023-11-21T01:24:08;99191.47;;;8.67;99.05
78354;BME280;67629;46.040;18.232;2023-11-21T01:24:38;99188.53;;;8.69;98.93
78354;BME280;67629;46.040;18.232;2023-11-21T01:25:09;99180.34;;;8.69;98.65
78354;BME280;67629;46.040;18.232;2023-11-21T01:25:40;99186.38;;;8.71;98.37
78354;BME280;67629;46.040;18.232;2023-11-21T01:26:11;99177.97;;;8.72;98.63
78354;BME280;67629;46.040;18.232;2023-11-21T01:26:42;99181.41;;;8.68;98.81
78354;BME280;67629;46.040;18.232;2023-11-21T01:27:12;99184.13;;;8.68;99.04
78354;BME280;67629;46.040;18.232;2023-11-21T01:27:43;99182.50;;;8.67;98.85
78354;BME280;67629;46.040;18.232;2023-11-21T01:28:13;99176.44;;;8.65;99.50
78354;BME280;67629;46.040;18.232;2023-11-21T01:28:44;99179.44;;;8.63;98.93
78354;BME280;67629;46.040;18.232;2023-11-21T01:29:15;99173.16;;;8.63;99.34
78354;BME280;67629;46.040;18.232;2023-11-21T01:29:45;99176.72;;;8.63;99.83
78354;BME280;67629;46.040;18.232;2023-11-21T01:30:16;99183.31;;;8.67;99.43
78354;BME280;67629;46.040;18.232;2023-11-21T01:30:48;99182.38;;;8.62;99.68
78354;BME280;67629;46.040;18.232;2023-11-21T01:31:18;99180.31;;;8.52;100.00
78354;BME280;67629;46.040;18.232;2023-11-21T01:31:50;99179.69;;;8.50;100.00
78354;BME280;67629;46.040;18.232;2023-11-21T01:32:22;99181.84;;;8.48;100.00
78354;BME280;67629;46.040;18.232;2023-11-21T01:32:52;99176.28;;;8.43;100.00
78354;BME280;67629;46.040;18.232;2023-11-21T01:33:23;99176.28;;;8.43;100.00
78354;BME280;67629;46.040;18.232;2023-11-21T01:34:11;99181.13;;;8.41;100.00
78354;BME280;67629;46.040;18.232;2023-11-21T01:34:42;99179.72;;;8.38;100.00
78354;BME280;67629;46.040;18.232;2023-11-21T01:35:12;99181.97;;;8.41;100.00
78354;BME280;67629;46.040;18.232;2023-11-21T01:35:43;99183.63;;;8.42;100.00
78354;BME280;67629;46.040;18.232;2023-11-21T01:36:14;99178.66;;;8.39;100.00
78354;BME280;67629;46.040;18.232;2023-11-21T01:36:46;99179.84;;;8.43;100.00
78354;BME280;67629;46.040;18.232;2023-11-21T01:37:17;99177.59;;;8.40;100.00
78354;BME280;67629;46.040;18.232;2023-11-21T01:37:47;99180.06;;;8.42;100.00
78354;BME280;67629;46.040;18.232;2023-11-21T01:38:18;99178.66;;;8.39;100.00
78354;BME280;67629;46.040;18.232;2023-11-21T01:38:49;99175.47;;;8.42;100.00
78354;BME280;67629;46.040;18.232;2023-11-21T01:39:19;99176.28;;;8.43;100.00
78354;BME280;67629;46.040;18.232;2023-11-21T01:39:54;99172.50;;;8.44;100.00
78354;BME280;67629;46.040;18.232;2023-11-21T01:40:28;99169.75;;;8.44;100.00
78354;BME280;67629;46.040;18.232;2023-11-21T01:40:59;99164.09;;;8.45;100.00
78354;BME280;67629;46.040;18.232;2023-11-21T01:41:31;99168.72;;;8.45;100.00
78354;BME280;67629;46.040;18.232;2023-11-21T01:42:01;99160.81;;;8.43;100.00
78354;BME280;67629;46.040;18.232;2023-11-21T01:42:32;99160.31;;;8.46;100.00
78354;BME280;67629;46.040;18.232;2023-11-21T01:43:03;99160.81;;;8.43;100.00
78354;BME280;67629;46.040;18.232;2023-11-21T01:43:34;99159.72;;;8.44;100.00
78354;BME280;67629;46.040;18.232;2023-11-21T01:44:04;99161.03;;;8.42;100.00
78354;BME280;67629;46.040;18.232;2023-11-21T01:46:40;99157.25;;;8.43;100.00
78354;BME280;67629;46.040;18.232;2023-11-21T01:47:13;99157.16;;;8.38;100.00
78354;BME280;67629;46.040;18.232;2023-11-21T01:47:44;99154.31;;;8.33;100.00
78354;BME280;67629;46.040;18.232;2023-11-21T01:48:15;99156.44;;;8.31;100.00
78354;BME280;67629;46.040;18.232;2023-11-21T01:48:48;99148.16;;;8.26;100.00
78354;BME280;67629;46.040;18.232;2023-11-21T01:49:20;99148.75;;;8.28;100.00
78354;BME280;67629;46.040;18.232;2023-11-21T01:49:51;99151.47;;;8.28;100.00
78354;BME280;67629;46.040;18.232;2023-11-21T01:50:22;99152.31;;;8.28;100.00
78354;BME280;67629;46.040;18.232;2023-11-21T01:50:53;99155.03;;;8.28;100.00
78354;BME280;67629;46.040;18.232;2023-11-21T01:51:23;99156.31;;;8.26;100.00
78354;BME280;67629;46.040;18.232;2023-11-21T01:51:54;99152.50;;;8.27;100.00
78354;BME280;67629;46.040;18.232;2023-11-21T01:52:25;99154.19;;;8.28;100.00
78354;BME280;67629;46.040;18.232;2023-11-21T01:52:57;99149.47;;;8.23;100.00
78354;BME280;67629;46.040;18.232;2023-11-21T01:53:28;99153.16;;;8.29;100.00
78354;BME280;67629;46.040;18.232;2023-11-21T01:54:00;99146.63;;;8.30;100.00
78354;BME280;67629;46.040;18.232;2023-11-21T01:54:31;99146.03;;;8.28;100.00
78354;BME280;67629;46.040;18.232;2023-11-21T01:55:03;99147.06;;;8.27;100.00
78354;BME280;67629;46.040;18.232;2023-11-21T01:55:35;99156.31;;;8.26;100.00
78354;BME280;67629;46.040;18.232;2023-11-21T01:56:07;99152.19;;;8.23;100.00
78354;BME280;67629;46.040;18.232;2023-11-21T01:57:09;99155.72;;;8.24;100.00
78354;BME280;67629;46.040;18.232;2023-11-21T01:57:40;99151.34;;;8.23;100.00
78354;BME280;67629;46.040;18.232;2023-11-21T01:58:11;99152.19;;;8.23;100.00
78354;BME280;67629;46.040;18.232;2023-11-21T01:58:43;99149.13;;;8.20;100.00
78354;BME280;67629;46.040;18.232;2023-11-21T01:59:18;99156.22;;;8.21;100.00
78354;BME280;67629;46.040;18.232;2023-11-21T01:59:52;99154.19;;;8.16;100.00
78354;BME280;67629;46.040;18.232;2023-11-21T02:00:24;99149.50;;;8.12;100.00
78354;BME280;67629;46.040;18.232;2023-11-21T02:00:56;99147.81;;;8.11;100.00
78354;BME280;67629;46.040;18.232;2023-11-21T02:01:26;99148.75;;;8.16;100.00
78354;BME280;67629;46.040;18.232;2023-11-21T02:01:57;99150.66;;;8.16;100.00
78354;BME280;67629;46.040;18.232;2023-11-21T02:02:27;99150.06;;;8.14;100.00
78354;BME280;67629;46.040;18.232;2023-11-21T02:02:58;99145.47;;;8.14;100.00
78354;BME280;67629;46.040;18.232;2023-11-21T02:03:29;99153.00;;;8.12;100.00
78354;BME280;67629;46.040;18.232;2023-11-21T02:04:00;99152.44;;;8.10;100.00
78354;BME280;67629;46.040;18.232;2023-11-21T02:04:32;99144.28;;;8.10;100.00
78354;BME280;67629;46.040;18.232;2023-11-21T02:05:03;99151.84;;;8.08;100.00
78354;BME280;67629;46.040;18.232;2023-11-21T02:05:34;99145.09;;;8.11;100.00
78354;BME280;67629;46.040;18.232;2023-11-21T02:06:05;99149.81;;;8.15;100.00
78354;BME280;67629;46.040;18.232;2023-11-21T02:08:01;99155.38;;;8.20;100.00
78354;BME280;67629;46.040;18.232;2023-11-21T02:08:33;99151.25;;;8.18;100.00
78354;BME280;67629;46.040;18.232;2023-11-21T02:09:04;99147.34;;;8.14;100.00
78354;BME280;67629;46.040;18.232;2023-11-21T02:09:35;99154.94;;;8.12;100.00
78354;BME280;67629;46.040;18.232;2023-11-21T02:10:09;99152.78;;;8.14;100.00
78354;BME280;67629;46.040;18.232;2023-11-21T02:10:39;99146.50;;;8.13;100.00
78354;BME280;67629;46.040;18.232;2023-11-21T02:11:11;99146.88;;;8.17;100.00
78354;BME280;67629;46.040;18.232;2023-11-21T02:11:44;99152.53;;;8.15;100.00
78354;BME280;67629;46.040;18.232;2023-11-21T02:12:15;99147.34;;;8.14;100.00
78354;BME280;67629;46.040;18.232;2023-11-21T02:12:46;99147.09;;;8.15;100.00
78354;BME280;67629;46.040;18.232;2023-11-21T02:13:17;99146.50;;;8.13;100.00
78354;BME280;67629;46.040;18.232;2023-11-21T02:13:47;99141.31;;;8.12;100.00
78354;BME280;67629;46.040;18.232;2023-11-21T02:14:21;99144.06;;;8.12;100.00
78354;BME280;67629;46.040;18.232;2023-11-21T02:14:52;99147.00;;;8.10;100.00
78354;BME280;67629;46.040;18.232;2023-11-21T02:15:23;99136.94;;;8.11;100.00
78354;BME280;67629;46.040;18.232;2023-11-21T02:15:57;99137.03;;;8.16;100.00
78354;BME280;67629;46.040;18.232;2023-11-21T02:16:28;99142.47;;;8.16;100.00
78354;BME280;67629;46.040;18.232;2023-11-21T02:17:02;99132.78;;;8.20;100.00
78354;BME280;67629;46.040;18.232;2023-11-21T02:17:33;99142.75;;;8.14;100.00
78354;BME280;67629;46.040;18.232;2023-11-21T02:18:04;99136.13;;;8.10;100.00
78354;BME280;67629;46.040;18.232;2023-11-21T02:18:36;99134.69;;;8.08;100.00
78354;BME280;67629;46.040;18.232;2023-11-21T02:19:07;99137.41;;;8.08;100.00
78354;BME280;67629;46.040;18.232;2023-11-21T02:19:41;99129.25;;;8.08;100.00
78354;BME280;67629;46.040;18.232;2023-11-21T02:20:12;99135.75;;;8.07;100.00
78354;BME280;67629;46.040;18.232;2023-11-21T02:20:45;99138.16;;;8.03;100.00
78354;BME280;67629;46.040;18.232;2023-11-21T02:21:17;99136.00;;;8.05;100.00
78354;BME280;67629;46.040;18.232;2023-11-21T02:21:50;99140.63;;;8.04;100.00
78354;BME280;67629;46.040;18.232;2023-11-21T02:22:22;99137.31;;;8.02;100.00
78354;BME280;67629;46.040;18.232;2023-11-21T02:22:57;99131.63;;;8.04;100.00
78354;BME280;67629;46.040;18.232;2023-11-21T02:23:28;99137.53;;;8.01;100.00
78354;BME280;67629;46.040;18.232;2023-11-21T02:23:59;99141.09;;;8.01;100.00
78354;BME280;67629;46.040;18.232;2023-11-21T02:24:30;99140.41;;;8.06;100.00
78354;BME280;67629;46.040;18.232;2023-11-21T02:25:02;99140.88;;;8.03;100.00
78354;BME280;67629;46.040;18.232;2023-11-21T02:25:33;99140.41;;;8.06;100.00
78354;BME280;67629;46.040;18.232;2023-11-21T02:26:04;99144.16;;;8.05;100.00
78354;BME280;67629;46.040;18.232;2023-11-21T02:26:35;99138.47;;;8.07;100.00
78354;BME280;67629;46.040;18.232;2023-11-21T02:27:06;99145.94;;;8.11;100.00
78354;BME280;67629;46.040;18.232;2023-11-21T02:27:36;99145.84;;;8.06;100.00
78354;BME280;67629;46.040;18.232;2023-11-21T02:28:07;99145.34;;;8.09;100.00
78354;BME280;67629;46.040;18.232;2023-11-21T02:28:38;99142.50;;;8.04;100.00
78354;BME280;67629;46.040;18.232;2023-11-21T02:29:09;99145.59;;;8.08;100.00
78354;BME280;67629;46.040;18.232;2023-11-21T02:29:42;99145.94;;;8.11;100.00
78354;BME280;67629;46.040;18.232;2023-11-21T02:30:14;99143.69;;;8.08;100.00
78354;BME280;67629;46.040;18.232;2023-11-21T02:30:44;99147.00;;;8.10;100.00
78354;BME280;67629;46.040;18.232;2023-11-21T02:31:15;99149.22;;;8.13;100.00
78354;BME280;67629;46.040;18.232;2023-11-21T02:31:47;99144.53;;;8.09;100.00
78354;BME280;67629;46.040;18.232;2023-11-21T02:32:21;99145.59;;;8.08;100.00
78354;BME280;67629;46.040;18.232;2023-11-21T02:32:54;99150.19;;;8.07;100.00
78354;BME280;67629;46.040;18.232;2023-11-21T02:33:24;99150.78;;;8.09;100.00
78354;BME280;67629;46.040;18.232;2023-11-21T02:33:55;99156.25;;;8.09;100.00
78354;BME280;67629;46.040;18.232;2023-11-21T02:35:38;99146.41;;;8.08;100.00
78354;BME280;67629;46.040;18.232;2023-11-21T02:36:09;99146.88;;;8.05;100.00
78354;BME280;67629;46.040;18.232;2023-11-21T02:36:40;99148.56;;;8.06;100.00
78354;BME280;67629;46.040;18.232;2023-11-21T02:37:11;99140.16;;;8.08;100.00
78354;BME280;67629;46.040;18.232;2023-11-21T02:37:42;99149.34;;;8.07;100.00
78354;BME280;67629;46.040;18.232;2023-11-21T02:38:12;99142.50;;;8.04;100.00
78354;BME280;67629;46.040;18.232;2023-11-21T02:38:44;99148.06;;;8.09;100.00
78354;BME280;67629;46.040;18.232;2023-11-21T02:39:15;99140.97;;;8.08;100.00
78354;BME280;67629;46.040;18.232;2023-11-21T02:39:46;99139.91;;;8.09;100.00
78354;BME280;67629;46.040;18.232;2023-11-21T02:40:17;99140.25;;;8.13;100.00
78354;BME280;67629;46.040;18.232;2023-11-21T02:40:48;99145.47;;;8.14;100.00
78354;BME280;67629;46.040;18.232;2023-11-21T02:41:19;99146.88;;;8.17;100.00
78354;BME280;67629;46.040;18.232;2023-11-21T02:41:50;99146.88;;;8.17;100.00
78354;BME280;67629;46.040;18.232;2023-11-21T02:42:21;99152.41;;;8.22;100.00
78354;BME280;67629;46.040;18.232;2023-11-21T02:42:51;99139.91;;;8.21;100.00
78354;BME280;67629;46.040;18.232;2023-11-21T02:43:22;99145.09;;;8.22;100.00
78354;BME280;67629;46.040;18.232;2023-11-21T02:43:53;99142.63;;;8.21;100.00
78354;BME280;67629;46.040;18.232;2023-11-21T02:47:00;99152.06;;;8.30;100.00
78354;BME280;67629;46.040;18.232;2023-11-21T02:47:31;99149.94;;;8.32;100.00
78354;BME280;67629;46.040;18.232;2023-11-21T02:48:01;99149.56;;;8.40;100.00
78354;BME280;67629;46.040;18.232;2023-11-21T02:48:32;99153.22;;;8.45;100.00
78354;BME280;67629;46.040;18.232;2023-11-21T02:49:03;99147.88;;;8.50;100.00
78354;BME280;67629;46.040;18.232;2023-11-21T02:49:36;99151.41;;;8.51;100.00
78354;BME280;67629;46.040;18.232;2023-11-21T02:50:07;99157.09;;;8.49;100.00
78354;BME280;67629;46.040;18.232;2023-11-21T02:50:39;99154.03;;;8.46;100.00
78354;BME280;67629;46.040;18.232;2023-11-21T02:51:09;99157.00;;;8.44;100.00
78354;BME280;67629;46.040;18.232;2023-11-21T02:51:40;99163.53;;;8.43;100.00
78354;BME280;67629;46.040;18.232;2023-11-21T02:52:10;99166.72;;;8.40;100.00
78354;BME280;67629;46.040;18.232;2023-11-21T02:52:41;99157.94;;;8.38;100.00
78354;BME280;67629;46.040;18.232;2023-11-21T02:53:12;99159.38;;;8.41;100.00
78354;BME280;67629;46.040;18.232;2023-11-21T02:53:43;99161.03;;;8.42;100.00
78354;BME280;67629;46.040;18.232;2023-11-21T02:54:13;99170.38;;;8.46;100.00
78354;BME280;67629;46.040;18.232;2023-11-21T02:54:44;99174.97;;;8.45;100.00
78354;BME280;67629;46.040;18.232;2023-11-21T02:55:15;99166.25;;;8.43;100.00
78354;BME280;67629;46.040;18.232;2023-11-21T02:55:46;99174.88;;;8.40;100.00
78354;BME280;67629;46.040;18.232;2023-11-21T03:01:49;99175.69;;;8.41;100.00
78354;BME280;67629;46.040;18.232;2023-11-21T03:02:20;99175.81;;;8.46;100.00
78354;BME280;67629;46.040;18.232;2023-11-21T03:02:53;99176.13;;;8.49;100.00
78354;BME280;67629;46.040;18.232;2023-11-21T03:03:24;99184.91;;;8.51;100.00
78354;BME280;67629;46.040;18.232;2023-11-21T03:03:55;99175.91;;;8.51;100.00
78354;BME280;67629;46.040;18.232;2023-11-21T03:04:27;99177.31;;;8.53;100.00
78354;BME280;67629;46.040;18.232;2023-11-21T03:04:57;99183.59;;;8.54;100.00
78354;BME280;67629;46.040;18.232;2023-11-21T03:05:28;99188.78;;;8.55;100.00
78354;BME280;67629;46.040;18.232;2023-11-21T03:05:59;99185.75;;;8.52;100.00
78354;BME280;67629;46.040;18.232;2023-11-21T03:06:30;99179.22;;;8.53;100.00
78354;BME280;67629;46.040;18.232;2023-11-21T03:07:00;99179.00;;;8.54;100.00
78354;BME280;67629;46.040;18.232;2023-11-21T03:07:31;99186.06;;;8.55;100.00
78354;BME280;67629;46.040;18.232;2023-11-21T03:08:02;99185.47;;;8.53;100.00
78354;BME280;67629;46.040;18.232;2023-11-21T03:08:32;99187.63;;;8.51;100.00
78354;BME280;67629;46.040;18.232;2023-11-21T03:09:03;99184.06;;;8.51;100.00